createdAt,value
2018-02-24T00:02:24.846Z,28.08
2018-02-24T00:04:52.427Z,33.08
2018-02-24T00:07:19.951Z,28.95
2018-02-24T00:09:47.627Z,33.80
2018-02-24T00:12:15.318Z,27.00
2018-02-24T00:14:43.626Z,29.98
2018-02-24T00:17:11.213Z,33.38
2018-02-24T00:19:38.735Z,33.05
2018-02-24T00:22:06.307Z,29.87
2018-02-24T00:24:33.814Z,31.48
2018-02-24T00:27:01.414Z,38.75
2018-02-24T00:29:28.970Z,33.83
2018-02-24T00:31:56.563Z,32.35
2018-02-24T00:34:25.059Z,37.17
2018-02-24T00:36:52.637Z,36.50
2018-02-24T00:39:20.163Z,34.22
2018-02-24T00:41:48.880Z,34.67
2018-02-24T00:44:16.425Z,28.87
2018-02-24T00:46:44.003Z,32.33
2018-02-24T00:49:11.715Z,35.53
2018-02-24T00:51:40.047Z,33.20
2018-02-24T00:54:07.566Z,32.13
2018-02-24T00:56:35.924Z,34.58
2018-02-24T00:59:03.463Z,32.97
2018-02-24T01:01:31.169Z,35.78
2018-02-24T01:03:59.503Z,37.25
2018-02-24T01:06:27.100Z,36.75
2018-02-24T01:08:55.418Z,38.50
2018-02-24T01:11:23.069Z,33.60
2018-02-24T01:13:50.622Z,30.67
2018-02-24T01:16:18.199Z,37.00
2018-02-24T01:18:45.723Z,39.33
2018-02-24T01:21:14.019Z,35.10
2018-02-24T01:23:41.578Z,35.55
2018-02-24T01:26:09.132Z,36.58
2018-02-24T01:28:36.685Z,28.52
2018-02-24T01:31:04.227Z,39.78
2018-02-24T01:33:32.526Z,33.28
2018-02-24T01:36:01.083Z,32.10
2018-02-24T01:38:29.492Z,36.03
2018-02-24T01:40:57.052Z,31.08
2018-02-24T01:43:24.560Z,35.83
2018-02-24T01:45:52.115Z,37.65
2018-02-24T01:48:19.731Z,33.40
2018-02-24T01:50:47.312Z,33.75
2018-02-24T01:53:14.944Z,36.20
2018-02-24T01:55:42.500Z,35.35
2018-02-24T01:58:10.142Z,33.08
2018-02-24T02:00:38.596Z,35.40
2018-02-24T02:03:06.214Z,36.60
2018-02-24T02:05:33.776Z,30.92
2018-02-24T02:08:01.324Z,32.30
2018-02-24T02:10:28.907Z,38.10
2018-02-24T02:12:56.419Z,43.63
2018-02-24T02:15:24.754Z,32.92
2018-02-24T02:17:52.287Z,33.60
2018-02-24T02:20:19.871Z,28.08
2018-02-24T02:22:47.518Z,36.25
2018-02-24T02:25:15.072Z,32.22
2018-02-24T02:27:42.611Z,31.45
2018-02-24T02:30:10.937Z,34.10
2018-02-24T02:32:38.471Z,35.83
2018-02-24T02:35:06.108Z,29.73
2018-02-24T02:37:34.385Z,35.83
2018-02-24T02:40:01.951Z,32.40
2018-02-24T02:42:29.596Z,30.00
2018-02-24T02:44:58.010Z,30.15
2018-02-24T02:47:25.531Z,31.90
2018-02-24T02:49:53.826Z,31.05
2018-02-24T02:52:21.337Z,30.10
2018-02-24T02:54:48.861Z,29.55
2018-02-24T02:57:16.402Z,31.55
2018-02-24T02:59:43.921Z,33.88
2018-02-24T03:02:11.463Z,29.85
2018-02-24T03:04:39.083Z,31.73
2018-02-24T03:07:06.634Z,28.05
2018-02-24T03:09:34.161Z,30.52
2018-02-24T03:12:01.725Z,32.28
2018-02-24T03:14:29.274Z,31.75
2018-02-24T03:16:56.830Z,30.92
2018-02-24T03:19:24.396Z,33.08
2018-02-24T03:21:51.948Z,64.70
2018-02-24T03:24:19.485Z,29.45
2018-02-24T03:26:47.187Z,38.53
2018-02-24T03:29:14.723Z,29.30
2018-02-24T03:31:42.353Z,30.83
2018-02-24T03:34:09.888Z,26.87
2018-02-24T03:36:37.493Z,34.95
2018-02-24T03:39:05.034Z,26.67
2018-02-24T03:41:32.587Z,26.20
2018-02-24T03:44:00.363Z,30.50
2018-02-24T03:46:28.059Z,29.00
2018-02-24T03:48:56.493Z,27.92
2018-02-24T03:51:24.037Z,24.20
2018-02-24T03:53:51.716Z,26.35
2018-02-24T03:56:19.377Z,31.95
2018-02-24T03:58:46.894Z,26.37
2018-02-24T04:01:14.461Z,26.45
2018-02-24T04:03:42.791Z,24.15
2018-02-24T04:06:10.424Z,26.00
2018-02-24T04:08:37.943Z,27.55
2018-02-24T04:11:05.499Z,29.95
2018-02-24T04:13:33.094Z,23.27
2018-02-24T04:16:01.418Z,27.98
2018-02-24T04:18:28.976Z,21.48
2018-02-24T04:20:56.666Z,27.25
2018-02-24T04:23:25.971Z,24.58
2018-02-24T04:25:53.574Z,24.73
2018-02-24T04:28:21.107Z,22.87
2018-02-24T04:30:49.435Z,24.50
2018-02-24T04:33:16.956Z,25.12
2018-02-24T04:35:44.515Z,24.98
2018-02-24T04:38:12.063Z,26.25
2018-02-24T04:40:40.453Z,22.98
2018-02-24T04:43:07.969Z,19.85
2018-02-24T04:45:35.504Z,26.85
2018-02-24T04:48:03.038Z,25.23
2018-02-24T04:50:30.567Z,23.10
2018-02-24T04:52:58.855Z,24.98
2018-02-24T04:55:27.204Z,26.80
2018-02-24T04:57:54.818Z,30.20
2018-02-24T05:00:22.466Z,28.85
2018-02-24T05:02:50.000Z,24.65
2018-02-24T05:05:18.323Z,24.08
2018-02-24T05:07:46.511Z,23.10
2018-02-24T05:10:14.051Z,25.20
2018-02-24T05:12:41.582Z,26.27
2018-02-24T05:15:09.884Z,23.23
2018-02-24T05:17:37.400Z,26.55
2018-02-24T05:20:06.752Z,23.90
2018-02-24T05:22:34.263Z,22.65
2018-02-24T05:25:02.630Z,29.55
2018-02-24T05:27:30.222Z,26.98
2018-02-24T05:29:57.770Z,26.00
2018-02-24T05:32:26.068Z,27.62
2018-02-24T05:34:53.631Z,25.40
2018-02-24T05:37:21.143Z,29.42
2018-02-24T05:39:48.678Z,25.27
2018-02-24T05:42:16.268Z,32.90
2018-02-24T05:44:43.819Z,29.70
2018-02-24T05:47:11.324Z,31.42
2018-02-24T05:49:38.855Z,25.75
2018-02-24T05:52:07.161Z,25.35
2018-02-24T05:54:34.756Z,31.00
2018-02-24T05:57:02.291Z,23.67
2018-02-24T05:59:29.876Z,21.90
2018-02-24T06:01:57.407Z,30.08
2018-02-24T06:04:25.064Z,27.92
2018-02-24T06:06:52.580Z,24.35
2018-02-24T06:09:20.146Z,27.15
2018-02-24T06:11:48.464Z,28.12
2018-02-24T06:14:15.977Z,23.80
2018-02-24T06:16:43.528Z,26.48
2018-02-24T06:19:11.089Z,26.83
2018-02-24T06:21:38.698Z,22.73
2018-02-24T06:24:06.346Z,23.90
2018-02-24T06:26:33.880Z,27.20
2018-02-24T06:29:02.211Z,24.05
2018-02-24T06:31:29.757Z,24.58
2018-02-24T06:33:57.310Z,23.17
2018-02-24T06:36:24.832Z,28.95
2018-02-24T06:38:53.089Z,24.27
2018-02-24T06:41:20.695Z,23.92
2018-02-24T06:43:48.341Z,25.45
2018-02-24T06:46:16.634Z,23.85
2018-02-24T06:48:44.200Z,24.15
2018-02-24T06:51:12.568Z,19.02
2018-02-24T06:53:40.195Z,24.08
2018-02-24T06:56:07.758Z,28.33
2018-02-24T06:58:35.360Z,27.27
2018-02-24T07:01:02.880Z,24.05
2018-02-24T07:03:30.418Z,21.60
2018-02-24T07:05:58.068Z,21.02
2018-02-24T07:08:25.585Z,26.17
2018-02-24T07:10:53.159Z,19.37
2018-02-24T07:13:20.693Z,18.25
2018-02-24T07:15:49.026Z,25.83
2018-02-24T07:18:16.575Z,22.37
2018-02-24T07:20:44.204Z,20.77
2018-02-24T07:23:11.742Z,22.52
2018-02-24T07:25:40.144Z,22.35
2018-02-24T07:28:07.671Z,21.23
2018-02-24T07:30:35.239Z,18.10
2018-02-24T07:33:03.538Z,20.67
2018-02-24T07:35:31.086Z,23.25
2018-02-24T07:37:59.476Z,19.77
2018-02-24T07:40:27.036Z,17.52
2018-02-24T07:42:54.709Z,16.17
2018-02-24T07:45:22.285Z,22.37
2018-02-24T07:47:49.847Z,22.98
2018-02-24T07:50:17.393Z,20.70
2018-02-24T07:52:44.924Z,21.08
2018-02-24T07:55:13.316Z,21.90
2018-02-24T07:57:50.755Z,20.08
2018-02-24T08:00:18.304Z,23.75
2018-02-24T08:02:47.727Z,18.00
2018-02-24T08:05:15.283Z,18.02
2018-02-24T08:07:53.641Z,17.00
2018-02-24T08:10:21.212Z,17.45
2018-02-24T08:12:48.758Z,20.35
2018-02-24T08:15:16.349Z,19.23
2018-02-24T08:17:44.194Z,16.33
2018-02-24T08:20:11.762Z,18.70
2018-02-24T08:22:39.387Z,19.98
2018-02-24T08:25:07.733Z,19.75
2018-02-24T08:27:35.336Z,15.25
2018-02-24T08:30:03.966Z,17.92
2018-02-24T08:32:31.672Z,20.25
2018-02-24T08:35:00.499Z,16.42
2018-02-24T08:37:28.019Z,18.05
2018-02-24T08:39:56.343Z,16.15
2018-02-24T08:42:23.886Z,18.50
2018-02-24T08:44:51.456Z,20.25
2018-02-24T08:47:19.096Z,16.40
2018-02-24T08:49:46.640Z,20.20
2018-02-24T08:52:14.235Z,15.57
2018-02-24T08:54:41.764Z,17.80
2018-02-24T08:57:09.322Z,19.48
2018-02-24T08:59:36.866Z,18.30
2018-02-24T09:02:05.157Z,16.58
2018-02-24T09:04:32.707Z,17.50
2018-02-24T09:07:00.244Z,21.58
2018-02-24T09:09:28.552Z,18.08
2018-02-24T09:11:56.063Z,18.12
2018-02-24T09:14:23.625Z,17.80
2018-02-24T09:16:51.327Z,19.77
2018-02-24T09:19:18.945Z,19.55
2018-02-24T09:21:46.734Z,17.20
2018-02-24T09:24:15.028Z,17.73
2018-02-24T09:26:42.539Z,19.45
2018-02-24T09:29:10.104Z,15.63
2018-02-24T09:31:37.646Z,18.20
2018-02-24T09:34:05.522Z,18.08
2018-02-24T09:36:33.037Z,16.73
2018-02-24T09:39:06.331Z,16.17
2018-02-24T09:41:33.862Z,17.77
2018-02-24T09:44:01.421Z,16.30
2018-02-24T09:46:29.814Z,18.35
2018-02-24T09:48:57.497Z,17.70
2018-02-24T09:51:25.102Z,19.20
2018-02-24T09:53:53.732Z,17.10
2018-02-24T09:56:21.616Z,16.73
2018-02-24T09:58:49.401Z,15.70
2018-02-24T10:01:17.054Z,20.23
2018-02-24T10:03:44.681Z,13.68
2018-02-24T10:06:13.190Z,16.80
2018-02-24T10:08:51.064Z,16.42
2018-02-24T10:11:18.731Z,17.33
2018-02-24T10:13:46.247Z,13.93
2018-02-24T10:16:14.523Z,13.23
2018-02-24T10:18:42.992Z,15.70
2018-02-24T10:21:11.436Z,14.18
2018-02-24T10:23:39.071Z,14.95
2018-02-24T10:26:06.604Z,14.18
2018-02-24T10:28:34.929Z,12.80
2018-02-24T10:31:02.477Z,13.90
2018-02-24T10:33:30.026Z,13.75
2018-02-24T10:35:57.568Z,14.25
2018-02-24T10:38:25.200Z,16.23
2018-02-24T10:40:52.843Z,16.98
2018-02-24T10:43:20.404Z,18.70
2018-02-24T10:45:47.906Z,13.43
2018-02-24T10:48:15.488Z,15.48
2018-02-24T10:50:43.008Z,16.30
2018-02-24T10:53:11.332Z,13.82
2018-02-24T10:55:39.115Z,14.65
2018-02-24T10:58:06.828Z,13.80
2018-02-24T11:00:35.100Z,14.98
2018-02-24T11:03:03.485Z,16.73
2018-02-24T11:05:31.052Z,14.95
2018-02-24T11:07:58.577Z,14.55
2018-02-24T11:10:26.098Z,13.70
2018-02-24T11:12:53.676Z,15.57
2018-02-24T11:15:21.195Z,15.20
2018-02-24T11:17:48.837Z,16.48
2018-02-24T11:20:16.376Z,16.15
2018-02-24T11:22:44.708Z,15.77
2018-02-24T11:25:12.231Z,14.75
2018-02-24T11:27:40.541Z,14.80
2018-02-24T11:30:08.068Z,15.77
2018-02-24T11:32:35.648Z,18.08
2018-02-24T11:35:03.153Z,15.80
2018-02-24T11:37:30.762Z,19.52
2018-02-24T11:39:58.297Z,15.95
2018-02-24T11:42:26.604Z,14.18
2018-02-24T11:44:54.151Z,17.25
2018-02-24T11:47:21.691Z,15.98
2018-02-24T11:49:50.199Z,13.20
2018-02-24T11:52:17.738Z,13.62
2018-02-24T11:54:45.367Z,13.38
2018-02-24T11:57:12.915Z,14.63
2018-02-24T11:59:40.462Z,16.60
2018-02-24T12:02:07.984Z,12.52
2018-02-24T12:04:35.560Z,13.35
2018-02-24T12:07:03.131Z,15.35
2018-02-24T12:09:30.656Z,11.40
2018-02-24T12:11:58.206Z,15.88
2018-02-24T12:14:26.621Z,13.70
2018-02-24T12:16:54.125Z,12.05
2018-02-24T12:19:21.721Z,13.55
2018-02-24T12:21:49.243Z,17.05
2018-02-24T12:24:16.865Z,12.10
2018-02-24T12:26:44.413Z,13.05
2018-02-24T12:29:11.989Z,10.77
2018-02-24T12:31:39.531Z,13.05
2018-02-24T12:34:07.072Z,13.07
2018-02-24T12:36:34.584Z,12.80
2018-02-24T12:39:02.139Z,12.82
2018-02-24T12:41:29.668Z,14.85
2018-02-24T12:43:57.195Z,10.27
2018-02-24T12:46:25.464Z,8.57
2018-02-24T12:48:53.764Z,9.13
2018-02-24T12:51:21.272Z,10.57
2018-02-24T12:53:48.862Z,8.85
2018-02-24T12:56:17.140Z,11.70
2018-02-24T12:58:45.451Z,10.80
2018-02-24T13:01:12.955Z,9.80
2018-02-24T13:03:40.492Z,10.55
2018-02-24T13:06:08.026Z,13.30
2018-02-24T13:08:35.592Z,14.75
2018-02-24T13:11:03.127Z,10.25
2018-02-24T13:13:31.455Z,12.65
2018-02-24T13:15:59.023Z,10.45
2018-02-24T13:18:26.585Z,12.05
2018-02-24T13:20:54.116Z,12.85
2018-02-24T13:23:21.649Z,14.10
2018-02-24T13:25:49.177Z,14.87
2018-02-24T13:28:16.715Z,10.80
2018-02-24T13:30:44.226Z,11.85
2018-02-24T13:33:11.774Z,11.57
2018-02-24T13:35:40.061Z,15.18
2018-02-24T13:38:07.700Z,9.90
2018-02-24T13:40:35.990Z,12.20
2018-02-24T13:43:04.383Z,10.52
2018-02-24T13:45:31.891Z,9.85
2018-02-24T13:47:59.430Z,12.90
2018-02-24T13:50:27.067Z,11.60
2018-02-24T13:52:54.654Z,11.15
2018-02-24T13:55:22.171Z,13.55
2018-02-24T13:57:49.716Z,10.90
2018-02-24T14:00:17.980Z,9.65
2018-02-24T14:02:46.303Z,9.68
2018-02-24T14:05:13.822Z,10.18
2018-02-24T14:07:42.179Z,10.07
2018-02-24T14:10:09.789Z,12.77
2018-02-24T14:12:37.312Z,9.90
2018-02-24T14:15:05.622Z,9.93
2018-02-24T14:17:33.170Z,11.68
2018-02-24T14:20:01.466Z,10.77
2018-02-24T14:22:32.205Z,9.85
2018-02-24T14:24:59.713Z,9.35
2018-02-24T14:27:28.059Z,11.48
2018-02-24T14:29:55.596Z,8.77
2018-02-24T14:32:23.135Z,8.38
2018-02-24T14:34:50.656Z,8.02
2018-02-24T14:37:18.197Z,9.45
2018-02-24T14:39:45.713Z,7.80
2018-02-24T14:42:13.280Z,8.05
2018-02-24T14:44:40.779Z,10.20
2018-02-24T14:47:08.385Z,7.32
2018-02-24T14:49:36.655Z,9.65
2018-02-24T14:52:04.991Z,7.12
2018-02-24T14:54:32.494Z,6.90
2018-02-24T14:57:00.760Z,6.45
2018-02-24T14:59:29.137Z,10.50
2018-02-24T15:01:57.435Z,8.05
2018-02-24T15:04:25.005Z,7.45
2018-02-24T15:06:52.578Z,9.43
2018-02-24T15:09:20.149Z,8.57
2018-02-24T15:11:47.679Z,10.15
2018-02-24T15:14:15.216Z,6.72
2018-02-24T15:16:43.501Z,7.18
2018-02-24T15:19:11.881Z,9.18
2018-02-24T15:21:40.175Z,8.32
2018-02-24T15:24:09.511Z,10.00
2018-02-24T15:26:37.054Z,9.82
2018-02-24T15:29:04.632Z,11.23
2018-02-24T15:31:32.143Z,9.10
2018-02-24T15:33:59.705Z,7.25
2018-02-24T15:36:27.223Z,8.70
2018-02-24T15:38:54.769Z,10.10
2018-02-24T15:41:22.294Z,8.80
2018-02-24T15:43:49.832Z,11.27
2018-02-24T15:46:17.375Z,9.65
2018-02-24T15:48:45.666Z,10.50
2018-02-24T15:51:13.168Z,9.85
2018-02-24T15:53:40.874Z,8.95
2018-02-24T15:56:09.340Z,9.00
2018-02-24T15:58:36.949Z,9.55
2018-02-24T16:01:04.513Z,12.63
2018-02-24T16:03:32.068Z,9.82
2018-02-24T16:05:59.607Z,16.55
2018-02-24T16:08:27.186Z,10.65
2018-02-24T16:10:54.728Z,9.63
2018-02-24T16:13:22.273Z,10.52
2018-02-24T16:15:50.575Z,10.15
2018-02-24T16:18:18.107Z,9.70
2018-02-24T16:20:46.415Z,11.30
2018-02-24T16:23:13.967Z,14.45
2018-02-24T16:25:41.497Z,12.37
2018-02-24T16:28:09.800Z,11.38
2018-02-24T16:30:37.353Z,12.70
2018-02-24T16:33:04.890Z,12.27
2018-02-24T16:35:33.204Z,12.13
2018-02-24T16:38:00.766Z,11.30
2018-02-24T16:40:28.466Z,12.35
2018-02-24T16:42:56.021Z,11.32
2018-02-24T16:45:23.567Z,10.98
2018-02-24T16:47:51.126Z,12.85
2018-02-24T16:50:18.712Z,12.35
2018-02-24T16:52:46.239Z,10.95
2018-02-24T16:55:13.869Z,10.85
2018-02-24T16:57:41.440Z,11.35
2018-02-24T17:00:08.999Z,12.02
2018-02-24T17:02:37.282Z,9.15
2018-02-24T17:05:04.804Z,13.35
2018-02-24T17:07:33.876Z,10.82
2018-02-24T17:10:01.481Z,12.68
2018-02-24T17:12:29.094Z,10.23
2018-02-24T17:14:58.258Z,13.52
2018-02-24T17:17:28.566Z,11.20
2018-02-24T17:19:56.104Z,20.52
2018-02-24T17:22:24.501Z,10.00
2018-02-24T17:24:52.071Z,9.75
2018-02-24T17:27:19.623Z,10.70
2018-02-24T17:29:48.468Z,9.93
2018-02-24T17:32:16.086Z,9.95
2018-02-24T17:34:44.500Z,12.57
2018-02-24T17:37:12.044Z,12.23
2018-02-24T17:39:39.610Z,10.98
2018-02-24T17:42:07.175Z,10.88
2018-02-24T17:44:34.724Z,10.25
2018-02-24T17:47:02.328Z,13.00
2018-02-24T17:49:29.887Z,9.45
2018-02-24T17:51:58.255Z,12.88
2018-02-24T17:54:35.796Z,10.20
2018-02-24T17:57:03.464Z,11.25
2018-02-24T17:59:30.972Z,8.95
2018-02-24T18:01:58.528Z,11.05
2018-02-24T18:04:26.158Z,10.70
2018-02-24T18:06:53.754Z,12.48
2018-02-24T18:09:22.088Z,12.27
2018-02-24T18:11:49.677Z,12.00
2018-02-24T18:14:17.308Z,10.43
2018-02-24T18:16:45.282Z,14.18
2018-02-24T18:19:14.254Z,9.05
2018-02-24T18:21:43.147Z,9.48
2018-02-24T18:24:10.740Z,10.85
2018-02-24T18:26:40.167Z,18.62
2018-02-24T18:29:08.090Z,15.00
2018-02-24T18:31:35.844Z,15.10
2018-02-24T18:34:03.389Z,16.35
2018-02-24T18:36:30.941Z,16.55
2018-02-24T18:39:00.730Z,15.05
2018-02-24T18:41:30.003Z,13.77
2018-02-24T18:43:59.083Z,12.80
2018-02-24T18:46:26.640Z,14.87
2018-02-24T18:48:54.240Z,13.48
2018-02-24T18:51:21.782Z,14.73
2018-02-24T18:53:49.338Z,15.60
2018-02-24T18:56:16.884Z,13.35
2018-02-24T18:58:45.380Z,11.90
2018-02-24T19:01:13.034Z,14.27
2018-02-24T19:03:40.730Z,9.77
2018-02-24T19:06:08.370Z,12.50
2018-02-24T19:08:36.911Z,13.45
2018-02-24T19:11:04.438Z,12.93
2018-02-24T19:13:32.764Z,12.63
2018-02-24T19:16:00.282Z,14.32
2018-02-24T19:18:28.592Z,12.55
2018-02-24T19:20:56.129Z,8.13
2018-02-24T19:23:23.792Z,9.35
2018-02-24T19:25:51.354Z,11.75
2018-02-24T19:28:20.188Z,9.70
2018-02-24T19:30:47.744Z,9.45
2018-02-24T19:33:15.452Z,8.95
2018-02-24T19:35:43.777Z,7.43
2018-02-24T19:38:12.076Z,12.73
2018-02-24T19:40:39.731Z,7.57
2018-02-24T19:43:10.509Z,9.63
2018-02-24T19:45:38.093Z,10.00
2018-02-24T19:48:05.678Z,6.37
2018-02-24T19:50:44.349Z,7.35
2018-02-24T19:53:12.830Z,9.27
2018-02-24T19:55:40.400Z,6.60
2018-02-24T19:58:08.032Z,5.95
2018-02-24T20:00:36.363Z,6.72
2018-02-24T20:03:03.915Z,6.95
2018-02-24T20:05:31.415Z,6.30
2018-02-24T20:07:58.967Z,6.30
2018-02-24T20:10:26.513Z,5.90
2018-02-24T20:12:54.059Z,6.97
2018-02-24T20:15:21.715Z,7.15
2018-02-24T20:17:49.269Z,5.50
2018-02-24T20:20:16.807Z,8.50
2018-02-24T20:22:44.368Z,9.75
2018-02-24T20:25:11.954Z,9.90
2018-02-24T20:27:39.644Z,9.05
2018-02-24T20:30:17.186Z,7.00
2018-02-24T20:32:45.718Z,6.87
2018-02-24T20:35:14.289Z,5.95
2018-02-24T20:37:41.848Z,6.97
2018-02-24T20:40:09.436Z,6.03
2018-02-24T20:42:37.027Z,18.05
2018-02-24T20:45:04.620Z,7.75
2018-02-24T20:47:32.280Z,5.55
2018-02-24T20:49:59.888Z,6.37
2018-02-24T20:52:28.180Z,5.60
2018-02-24T20:54:56.567Z,7.00
2018-02-24T20:57:24.128Z,5.35
2018-02-24T20:59:51.656Z,4.07
2018-02-24T21:02:19.176Z,6.65
2018-02-24T21:04:46.744Z,4.50
2018-02-24T21:07:14.296Z,8.80
2018-02-24T21:09:42.668Z,8.38
2018-02-24T21:12:10.229Z,7.60
2018-02-24T21:14:37.929Z,5.85
2018-02-24T21:17:05.462Z,3.72
2018-02-24T21:19:33.014Z,4.82
2018-02-24T21:22:00.579Z,5.43
2018-02-24T21:24:28.111Z,4.93
2018-02-24T21:26:55.669Z,5.80
2018-02-24T21:29:23.215Z,6.53
2018-02-24T21:31:50.819Z,6.00
2018-02-24T21:34:18.513Z,7.05
2018-02-24T21:36:46.110Z,5.25
2018-02-24T21:39:14.407Z,5.37
2018-02-24T21:41:42.004Z,6.35
2018-02-24T21:44:11.028Z,6.85
2018-02-24T21:46:38.595Z,6.20
2018-02-24T21:49:06.181Z,4.87
2018-02-24T21:51:35.505Z,6.30
2018-02-24T21:54:03.022Z,4.40
2018-02-24T21:56:31.546Z,4.20
2018-02-24T21:58:59.109Z,4.25
2018-02-24T22:01:26.724Z,11.25
2018-02-24T22:03:54.273Z,6.85
2018-02-24T22:06:22.007Z,6.40
2018-02-24T22:08:49.495Z,5.28
2018-02-24T22:11:17.041Z,6.60
2018-02-24T22:13:45.320Z,5.20
2018-02-24T22:16:13.644Z,4.37
2018-02-24T22:18:42.564Z,5.62
2018-02-24T22:21:10.127Z,5.87
2018-02-24T22:23:37.734Z,8.73
2018-02-24T22:26:05.294Z,12.25
2018-02-24T22:28:32.927Z,6.20
2018-02-24T22:31:01.281Z,4.47
2018-02-24T22:33:28.837Z,4.50
2018-02-24T22:35:56.371Z,7.37
2018-02-24T22:38:23.910Z,6.10
2018-02-24T22:40:51.466Z,5.07
2018-02-24T22:43:19.152Z,4.90
2018-02-24T22:45:46.727Z,4.30
2018-02-24T22:48:19.858Z,3.95
2018-02-24T22:50:48.237Z,8.10
2018-02-24T22:53:16.538Z,5.05
2018-02-24T22:55:44.044Z,5.03
2018-02-24T22:58:11.598Z,3.65
2018-02-24T23:00:39.907Z,6.85
2018-02-24T23:03:08.203Z,4.93
2018-02-24T23:05:35.701Z,5.62
2018-02-24T23:08:04.003Z,6.28
2018-02-24T23:10:31.532Z,6.47
2018-02-24T23:12:59.144Z,6.65
2018-02-24T23:15:26.713Z,5.50
2018-02-24T23:17:54.247Z,5.30
2018-02-24T23:20:22.977Z,4.80
2018-02-24T23:22:50.485Z,6.20
2018-02-24T23:25:18.780Z,4.12
2018-02-24T23:27:47.148Z,5.57
2018-02-24T23:30:15.478Z,7.60
2018-02-24T23:32:43.017Z,6.18
2018-02-24T23:35:10.683Z,8.27
2018-02-24T23:37:38.173Z,5.75
2018-02-24T23:40:05.726Z,5.62
2018-02-24T23:42:33.272Z,7.30
2018-02-24T23:45:00.907Z,8.45
2018-02-24T23:47:28.443Z,4.90
2018-02-24T23:49:56.770Z,3.55
2018-02-24T23:52:24.297Z,7.45
2018-02-24T23:54:51.884Z,5.68
2018-02-24T23:57:19.466Z,5.80
2018-02-24T23:59:47.811Z,4.87
